sensor_id;sensor_type;location;lat;lon;timestamp;temperature;humidity
55036;DHT22;40936;53.008;6.556;2023-04-25T00:02:10;8.50;99.90
55036;DHT22;40936;53.008;6.556;2023-04-25T00:04:36;8.40;99.90
55036;DHT22;40936;53.008;6.556;2023-04-25T00:07:03;9.90;99.90
55036;DHT22;40936;53.008;6.556;2023-04-25T00:09:29;9.70;99.90
55036;DHT22;40936;53.008;6.556;2023-04-25T00:11:55;8.40;99.90
55036;DHT22;40936;53.008;6.556;2023-04-25T00:14:21;8.60;99.90
55036;DHT22;40936;53.008;6.556;2023-04-25T00:16:48;8.00;99.90
55036;DHT22;40936;53.008;6.556;2023-04-25T00:19:14;8.10;99.90
55036;DHT22;40936;53.008;6.556;2023-04-25T00:21:39;9.40;99.90
55036;DHT22;40936;53.008;6.556;2023-04-25T00:24:08;8.40;99.90
55036;DHT22;40936;53.008;6.556;2023-04-25T00:26:34;8.50;99.90
55036;DHT22;40936;53.008;6.556;2023-04-25T00:29:01;8.20;99.90
55036;DHT22;40936;53.008;6.556;2023-04-25T00:31:27;7.70;99.90
55036;DHT22;40936;53.008;6.556;2023-04-25T00:33:54;9.10;99.90
55036;DHT22;40936;53.008;6.556;2023-04-25T00:36:20;8.70;99.90
55036;DHT22;40936;53.008;6.556;2023-04-25T00:38:46;8.30;99.90
55036;DHT22;40936;53.008;6.556;2023-04-25T00:41:11;8.00;99.90
55036;DHT22;40936;53.008;6.556;2023-04-25T00:43:37;9.00;99.90
55036;DHT22;40936;53.008;6.556;2023-04-25T00:46:04;8.70;99.90
55036;DHT22;40936;53.008;6.556;2023-04-25T00:48:29;7.90;99.90
55036;DHT22;40936;53.008;6.556;2023-04-25T00:50:58;8.00;99.90
55036;DHT22;40936;53.008;6.556;2023-04-25T00:53:26;8.30;99.90
55036;DHT22;40936;53.008;6.556;2023-04-25T00:55:52;8.00;99.90
55036;DHT22;40936;53.008;6.556;2023-04-25T00:58:21;7.50;99.90
55036;DHT22;40936;53.008;6.556;2023-04-25T01:00:48;7.80;99.90
55036;DHT22;40936;53.008;6.556;2023-04-25T01:03:16;8.30;99.90
55036;DHT22;40936;53.008;6.556;2023-04-25T01:05:43;8.10;99.90
55036;DHT22;40936;53.008;6.556;2023-04-25T01:08:09;7.20;99.90
55036;DHT22;40936;53.008;6.556;2023-04-25T01:10:35;8.40;99.90
55036;DHT22;40936;53.008;6.556;2023-04-25T01:13:01;8.00;99.90
55036;DHT22;40936;53.008;6.556;2023-04-25T01:15:28;7.40;99.90
55036;DHT22;40936;53.008;6.556;2023-04-25T01:17:54;7.70;99.90
55036;DHT22;40936;53.008;6.556;2023-04-25T01:20:24;6.80;99.90
55036;DHT22;40936;53.008;6.556;2023-04-25T01:22:53;7.20;99.90
55036;DHT22;40936;53.008;6.556;2023-04-25T01:25:21;7.90;99.90
55036;DHT22;40936;53.008;6.556;2023-04-25T01:27:47;9.00;99.90
55036;DHT22;40936;53.008;6.556;2023-04-25T01:30:13;7.70;99.90
55036;DHT22;40936;53.008;6.556;2023-04-25T01:32:40;7.60;99.90
55036;DHT22;40936;53.008;6.556;2023-04-25T01:35:08;7.00;99.90
55036;DHT22;40936;53.008;6.556;2023-04-25T01:37:45;7.20;99.90
55036;DHT22;40936;53.008;6.556;2023-04-25T01:40:11;6.70;99.90
55036;DHT22;40936;53.008;6.556;2023-04-25T01:42:40;7.70;99.90
55036;DHT22;40936;53.008;6.556;2023-04-25T01:45:07;7.70;99.90
55036;DHT22;40936;53.008;6.556;2023-04-25T01:47:33;6.80;99.90
55036;DHT22;40936;53.008;6.556;2023-04-25T01:50:01;7.70;99.90
55036;DHT22;40936;53.008;6.556;2023-04-25T01:52:27;7.60;99.90
55036;DHT22;40936;53.008;6.556;2023-04-25T01:54:53;8.90;99.90
55036;DHT22;40936;53.008;6.556;2023-04-25T01:57:19;7.10;99.90
55036;DHT22;40936;53.008;6.556;2023-04-25T01:59:45;7.10;99.90
55036;DHT22;40936;53.008;6.556;2023-04-25T02:02:11;7.30;99.90
55036;DHT22;40936;53.008;6.556;2023-04-25T02:04:37;6.40;99.90
55036;DHT22;40936;53.008;6.556;2023-04-25T02:07:03;7.50;99.90
55036;DHT22;40936;53.008;6.556;2023-04-25T02:09:29;7.60;99.90
55036;DHT22;40936;53.008;6.556;2023-04-25T02:11:55;7.60;99.90
55036;DHT22;40936;53.008;6.556;2023-04-25T02:14:20;7.80;99.90
55036;DHT22;40936;53.008;6.556;2023-04-25T02:16:46;7.90;99.90
55036;DHT22;40936;53.008;6.556;2023-04-25T02:19:12;7.70;99.90
55036;DHT22;40936;53.008;6.556;2023-04-25T02:21:38;10.20;99.90
55036;DHT22;40936;53.008;6.556;2023-04-25T02:24:04;6.90;99.90
55036;DHT22;40936;53.008;6.556;2023-04-25T02:26:30;7.60;99.90
55036;DHT22;40936;53.008;6.556;2023-04-25T02:28:58;8.10;99.90
55036;DHT22;40936;53.008;6.556;2023-04-25T02:31:24;7.70;99.90
55036;DHT22;40936;53.008;6.556;2023-04-25T02:33:50;7.00;99.90
55036;DHT22;40936;53.008;6.556;2023-04-25T02:36:16;7.60;99.90
55036;DHT22;40936;53.008;6.556;2023-04-25T02:38:41;7.40;99.90
55036;DHT22;40936;53.008;6.556;2023-04-25T02:41:07;8.60;99.90
55036;DHT22;40936;53.008;6.556;2023-04-25T02:43:33;7.20;99.90
55036;DHT22;40936;53.008;6.556;2023-04-25T02:45:59;7.60;99.90
55036;DHT22;40936;53.008;6.556;2023-04-25T02:48:25;6.90;99.90
55036;DHT22;40936;53.008;6.556;2023-04-25T02:50:51;7.60;99.90
55036;DHT22;40936;53.008;6.556;2023-04-25T02:53:17;7.20;99.90
55036;DHT22;40936;53.008;6.556;2023-04-25T02:55:42;9.10;99.90
55036;DHT22;40936;53.008;6.556;2023-04-25T02:58:08;7.60;99.90
55036;DHT22;40936;53.008;6.556;2023-04-25T03:00:34;5.10;99.90
55036;DHT22;40936;53.008;6.556;2023-04-25T03:02:59;7.10;99.90
55036;DHT22;40936;53.008;6.556;2023-04-25T03:05:25;7.50;99.90
55036;DHT22;40936;53.008;6.556;2023-04-25T03:07:51;7.60;99.90
55036;DHT22;40936;53.008;6.556;2023-04-25T03:10:16;7.40;99.90
55036;DHT22;40936;53.008;6.556;2023-04-25T03:12:42;7.20;99.90
55036;DHT22;40936;53.008;6.556;2023-04-25T03:15:08;7.30;99.90
55036;DHT22;40936;53.008;6.556;2023-04-25T03:17:34;6.80;99.90
55036;DHT22;40936;53.008;6.556;2023-04-25T03:20:00;8.10;99.90
55036;DHT22;40936;53.008;6.556;2023-04-25T03:22:26;7.30;99.90
55036;DHT22;40936;53.008;6.556;2023-04-25T03:24:52;7.10;99.90
55036;DHT22;40936;53.008;6.556;2023-04-25T03:27:17;7.60;99.90
55036;DHT22;40936;53.008;6.556;2023-04-25T03:29:43;8.60;99.90
55036;DHT22;40936;53.008;6.556;2023-04-25T03:32:08;7.60;99.90
55036;DHT22;40936;53.008;6.556;2023-04-25T03:34:34;8.20;99.90
55036;DHT22;40936;53.008;6.556;2023-04-25T03:37:00;7.00;99.90
55036;DHT22;40936;53.008;6.556;2023-04-25T03:39:26;7.30;99.90
55036;DHT22;40936;53.008;6.556;2023-04-25T03:41:52;7.60;99.90
55036;DHT22;40936;53.008;6.556;2023-04-25T03:44:17;8.20;99.90
55036;DHT22;40936;53.008;6.556;2023-04-25T03:49:09;7.10;99.90
55036;DHT22;40936;53.008;6.556;2023-04-25T03:51:35;7.10;99.90
55036;DHT22;40936;53.008;6.556;2023-04-25T03:54:01;7.00;99.90
55036;DHT22;40936;53.008;6.556;2023-04-25T03:56:26;7.50;99.90
55036;DHT22;40936;53.008;6.556;2023-04-25T03:58:52;7.10;99.90
55036;DHT22;40936;53.008;6.556;2023-04-25T04:01:18;7.50;99.90
55036;DHT22;40936;53.008;6.556;2023-04-25T04:03:43;7.00;99.90
55036;DHT22;40936;53.008;6.556;2023-04-25T04:06:09;7.00;99.90
55036;DHT22;40936;53.008;6.556;2023-04-25T04:08:36;6.90;99.90
55036;DHT22;40936;53.008;6.556;2023-04-25T04:11:02;6.40;99.90
55036;DHT22;40936;53.008;6.556;2023-04-25T04:13:28;7.10;99.90
55036;DHT22;40936;53.008;6.556;2023-04-25T04:15:54;7.90;99.90
55036;DHT22;40936;53.008;6.556;2023-04-25T04:18:21;6.10;99.90
55036;DHT22;40936;53.008;6.556;2023-04-25T04:20:47;6.90;99.90
55036;DHT22;40936;53.008;6.556;2023-04-25T04:23:13;6.00;99.90
55036;DHT22;40936;53.008;6.556;2023-04-25T04:25:39;5.90;99.90
55036;DHT22;40936;53.008;6.556;2023-04-25T04:28:06;6.50;99.90
55036;DHT22;40936;53.008;6.556;2023-04-25T04:30:32;7.20;99.90
55036;DHT22;40936;53.008;6.556;2023-04-25T04:33:02;6.10;99.90
55036;DHT22;40936;53.008;6.556;2023-04-25T04:35:28;7.20;99.90
55036;DHT22;40936;53.008;6.556;2023-04-25T04:37:53;7.20;99.90
55036;DHT22;40936;53.008;6.556;2023-04-25T04:40:20;6.60;99.90
55036;DHT22;40936;53.008;6.556;2023-04-25T04:42:47;6.00;99.90
55036;DHT22;40936;53.008;6.556;2023-04-25T04:47:39;6.20;99.90
55036;DHT22;40936;53.008;6.556;2023-04-25T04:50:10;6.40;99.90
55036;DHT22;40936;53.008;6.556;2023-04-25T04:52:36;6.50;99.90
55036;DHT22;40936;53.008;6.556;2023-04-25T04:55:03;8.00;99.90
55036;DHT22;40936;53.008;6.556;2023-04-25T04:57:29;5.80;99.90
55036;DHT22;40936;53.008;6.556;2023-04-25T04:59:55;6.70;99.90
55036;DHT22;40936;53.008;6.556;2023-04-25T05:02:20;5.90;99.90
55036;DHT22;40936;53.008;6.556;2023-04-25T05:04:46;6.40;99.90
55036;DHT22;40936;53.008;6.556;2023-04-25T05:07:12;6.90;99.90
55036;DHT22;40936;53.008;6.556;2023-04-25T05:09:38;5.70;99.90
55036;DHT22;40936;53.008;6.556;2023-04-25T05:12:04;6.80;99.90
55036;DHT22;40936;53.008;6.556;2023-04-25T05:14:30;6.10;99.90
55036;DHT22;40936;53.008;6.556;2023-04-25T05:16:56;5.10;99.90
55036;DHT22;40936;53.008;6.556;2023-04-25T05:19:21;6.20;99.90
55036;DHT22;40936;53.008;6.556;2023-04-25T05:21:47;6.30;99.90
55036;DHT22;40936;53.008;6.556;2023-04-25T05:24:13;6.50;99.90
55036;DHT22;40936;53.008;6.556;2023-04-25T05:26:38;5.90;99.90
55036;DHT22;40936;53.008;6.556;2023-04-25T05:29:04;6.40;99.90
55036;DHT22;40936;53.008;6.556;2023-04-25T05:31:31;6.80;99.90
55036;DHT22;40936;53.008;6.556;2023-04-25T05:33:57;6.90;99.90
55036;DHT22;40936;53.008;6.556;2023-04-25T05:36:23;6.90;99.90
55036;DHT22;40936;53.008;6.556;2023-04-25T05:38:49;7.50;99.90
55036;DHT22;40936;53.008;6.556;2023-04-25T05:41:14;7.30;99.90
55036;DHT22;40936;53.008;6.556;2023-04-25T05:43:40;7.20;99.90
55036;DHT22;40936;53.008;6.556;2023-04-25T05:46:11;7.40;99.90
55036;DHT22;40936;53.008;6.556;2023-04-25T05:48:37;7.30;99.90
55036;DHT22;40936;53.008;6.556;2023-04-25T05:51:03;7.50;99.90
55036;DHT22;40936;53.008;6.556;2023-04-25T05:53:29;7.30;99.90
55036;DHT22;40936;53.008;6.556;2023-04-25T05:55:55;9.80;99.90
55036;DHT22;40936;53.008;6.556;2023-04-25T05:58:20;7.50;99.90
55036;DHT22;40936;53.008;6.556;2023-04-25T06:00:46;7.60;99.90
55036;DHT22;40936;53.008;6.556;2023-04-25T06:03:12;7.80;99.90
55036;DHT22;40936;53.008;6.556;2023-04-25T06:05:43;7.60;99.90
55036;DHT22;40936;53.008;6.556;2023-04-25T06:08:09;7.60;99.90
55036;DHT22;40936;53.008;6.556;2023-04-25T06:10:36;8.20;99.90
55036;DHT22;40936;53.008;6.556;2023-04-25T06:13:02;7.50;99.90
55036;DHT22;40936;53.008;6.556;2023-04-25T06:15:28;7.40;99.90
55036;DHT22;40936;53.008;6.556;2023-04-25T06:17:54;7.60;99.90
55036;DHT22;40936;53.008;6.556;2023-04-25T06:20:20;7.40;99.90
55036;DHT22;40936;53.008;6.556;2023-04-25T06:22:49;7.20;99.90
55036;DHT22;40936;53.008;6.556;2023-04-25T06:25:15;8.40;99.90
55036;DHT22;40936;53.008;6.556;2023-04-25T06:27:41;7.40;99.90
55036;DHT22;40936;53.008;6.556;2023-04-25T06:30:07;7.40;99.90
55036;DHT22;40936;53.008;6.556;2023-04-25T06:32:33;7.80;99.90
55036;DHT22;40936;53.008;6.556;2023-04-25T06:35:00;8.50;99.90
55036;DHT22;40936;53.008;6.556;2023-04-25T06:37:26;8.80;99.90
55036;DHT22;40936;53.008;6.556;2023-04-25T06:39:52;8.60;99.90
55036;DHT22;40936;53.008;6.556;2023-04-25T06:42:17;8.60;99.90
55036;DHT22;40936;53.008;6.556;2023-04-25T06:44:43;8.70;99.90
55036;DHT22;40936;53.008;6.556;2023-04-25T06:47:09;8.80;99.90
55036;DHT22;40936;53.008;6.556;2023-04-25T06:49:35;8.70;99.90
55036;DHT22;40936;53.008;6.556;2023-04-25T06:52:00;8.70;99.90
55036;DHT22;40936;53.008;6.556;2023-04-25T06:54:26;8.70;99.90
55036;DHT22;40936;53.008;6.556;2023-04-25T06:56:55;8.60;99.90
55036;DHT22;40936;53.008;6.556;2023-04-25T06:59:21;8.50;99.90
55036;DHT22;40936;53.008;6.556;2023-04-25T07:01:47;8.50;99.90
55036;DHT22;40936;53.008;6.556;2023-04-25T07:04:12;8.70;99.90
55036;DHT22;40936;53.008;6.556;2023-04-25T07:06:38;9.00;99.90
55036;DHT22;40936;53.008;6.556;2023-04-25T07:09:08;9.30;99.90
55036;DHT22;40936;53.008;6.556;2023-04-25T07:11:35;9.70;99.90
55036;DHT22;40936;53.008;6.556;2023-04-25T07:14:01;9.90;99.90
55036;DHT22;40936;53.008;6.556;2023-04-25T07:16:27;10.00;99.90
55036;DHT22;40936;53.008;6.556;2023-04-25T07:18:53;9.90;99.90
55036;DHT22;40936;53.008;6.556;2023-04-25T07:21:18;9.80;99.90
55036;DHT22;40936;53.008;6.556;2023-04-25T07:23:44;9.50;99.90
55036;DHT22;40936;53.008;6.556;2023-04-25T07:26:10;9.90;99.90
55036;DHT22;40936;53.008;6.556;2023-04-25T07:28:36;9.90;99.90
55036;DHT22;40936;53.008;6.556;2023-04-25T07:31:02;10.30;99.90
55036;DHT22;40936;53.008;6.556;2023-04-25T07:33:28;10.50;99.90
55036;DHT22;40936;53.008;6.556;2023-04-25T07:35:54;10.80;99.90
55036;DHT22;40936;53.008;6.556;2023-04-25T07:38:20;11.30;99.90
55036;DHT22;40936;53.008;6.556;2023-04-25T07:40:47;11.70;99.90
55036;DHT22;40936;53.008;6.556;2023-04-25T07:43:12;11.50;1.00
55036;DHT22;40936;53.008;6.556;2023-04-25T07:45:42;11.50;1.00
55036;DHT22;40936;53.008;6.556;2023-04-25T07:48:08;11.50;99.90
55036;DHT22;40936;53.008;6.556;2023-04-25T07:50:34;11.70;1.00
55036;DHT22;40936;53.008;6.556;2023-04-25T07:52:59;11.80;99.90
55036;DHT22;40936;53.008;6.556;2023-04-25T07:55:25;11.70;1.30
55036;DHT22;40936;53.008;6.556;2023-04-25T07:57:51;11.50;1.00
55036;DHT22;40936;53.008;6.556;2023-04-25T08:00:17;11.20;1.00
55036;DHT22;40936;53.008;6.556;2023-04-25T08:02:43;10.80;1.00
55036;DHT22;40936;53.008;6.556;2023-04-25T08:05:09;10.40;99.90
55036;DHT22;40936;53.008;6.556;2023-04-25T08:07:37;10.30;99.90
55036;DHT22;40936;53.008;6.556;2023-04-25T08:10:05;10.30;99.90
55036;DHT22;40936;53.008;6.556;2023-04-25T08:12:31;10.20;99.90
55036;DHT22;40936;53.008;6.556;2023-04-25T08:14:56;10.40;99.90
55036;DHT22;40936;53.008;6.556;2023-04-25T08:17:22;10.30;99.90
55036;DHT22;40936;53.008;6.556;2023-04-25T08:19:48;10.60;99.90
55036;DHT22;40936;53.008;6.556;2023-04-25T08:22:14;11.10;99.90
55036;DHT22;40936;53.008;6.556;2023-04-25T08:24:40;11.50;99.90
55036;DHT22;40936;53.008;6.556;2023-04-25T08:27:06;11.70;99.90
55036;DHT22;40936;53.008;6.556;2023-04-25T08:29:33;12.50;96.10
55036;DHT22;40936;53.008;6.556;2023-04-25T08:31:59;13.70;92.10
55036;DHT22;40936;53.008;6.556;2023-04-25T08:34:25;15.00;59.70
55036;DHT22;40936;53.008;6.556;2023-04-25T08:36:51;16.00;24.10
55036;DHT22;40936;53.008;6.556;2023-04-25T08:39:17;16.90;11.50
55036;DHT22;40936;53.008;6.556;2023-04-25T08:41:43;17.70;1.00
55036;DHT22;40936;53.008;6.556;2023-04-25T08:44:13;17.60;1.00
55036;DHT22;40936;53.008;6.556;2023-04-25T08:46:40;17.10;1.00
55036;DHT22;40936;53.008;6.556;2023-04-25T08:49:08;16.10;1.00
55036;DHT22;40936;53.008;6.556;2023-04-25T08:51:44;15.10;1.00
55036;DHT22;40936;53.008;6.556;2023-04-25T08:54:12;14.30;1.00
55036;DHT22;40936;53.008;6.556;2023-04-25T08:56:39;13.70;1.00
55036;DHT22;40936;53.008;6.556;2023-04-25T08:59:06;13.10;1.00
55036;DHT22;40936;53.008;6.556;2023-04-25T09:01:34;12.90;3.10
55036;DHT22;40936;53.008;6.556;2023-04-25T09:04:01;13.20;9.10
55036;DHT22;40936;53.008;6.556;2023-04-25T09:06:29;13.70;14.80
55036;DHT22;40936;53.008;6.556;2023-04-25T09:09:04;13.60;15.00
55036;DHT22;40936;53.008;6.556;2023-04-25T09:11:34;12.90;22.60
55036;DHT22;40936;53.008;6.556;2023-04-25T09:14:30;12.10;38.30
55036;DHT22;40936;53.008;6.556;2023-04-25T09:19:30;11.50;62.60
55036;DHT22;40936;53.008;6.556;2023-04-25T09:22:03;11.50;60.60
55036;DHT22;40936;53.008;6.556;2023-04-25T09:24:36;11.90;73.30
55036;DHT22;40936;53.008;6.556;2023-04-25T09:27:07;12.80;75.00
55036;DHT22;40936;53.008;6.556;2023-04-25T09:29:38;13.40;50.60
55036;DHT22;40936;53.008;6.556;2023-04-25T09:32:23;14.00;49.00
55036;DHT22;40936;53.008;6.556;2023-04-25T09:34:51;15.30;36.40
55036;DHT22;40936;53.008;6.556;2023-04-25T09:37:28;16.60;9.60
55036;DHT22;40936;53.008;6.556;2023-04-25T09:39:59;18.10;1.00
55036;DHT22;40936;53.008;6.556;2023-04-25T09:42:29;19.30;1.00
55036;DHT22;40936;53.008;6.556;2023-04-25T09:44:57;20.10;1.00
55036;DHT22;40936;53.008;6.556;2023-04-25T09:47:24;21.00;1.00
55036;DHT22;40936;53.008;6.556;2023-04-25T09:49:51;21.30;1.00
55036;DHT22;40936;53.008;6.556;2023-04-25T09:52:19;22.00;1.00
55036;DHT22;40936;53.008;6.556;2023-04-25T09:54:45;21.50;1.00
55036;DHT22;40936;53.008;6.556;2023-04-25T09:59:43;17.00;1.00
55036;DHT22;40936;53.008;6.556;2023-04-25T10:02:09;13.90;21.00
55036;DHT22;40936;53.008;6.556;2023-04-25T10:04:38;12.20;99.90
55036;DHT22;40936;53.008;6.556;2023-04-25T10:07:07;11.30;99.90
55036;DHT22;40936;53.008;6.556;2023-04-25T10:09:34;10.70;1.00
55036;DHT22;40936;53.008;6.556;2023-04-25T10:12:02;10.60;99.90
55036;DHT22;40936;53.008;6.556;2023-04-25T10:14:30;10.60;99.90
55036;DHT22;40936;53.008;6.556;2023-04-25T10:16:57;11.10;99.90
55036;DHT22;40936;53.008;6.556;2023-04-25T10:19:24;12.20;1.00
55036;DHT22;40936;53.008;6.556;2023-04-25T10:22:37;13.70;99.90
55036;DHT22;40936;53.008;6.556;2023-04-25T10:24:56;15.30;99.90
55036;DHT22;40936;53.008;6.556;2023-04-25T10:27:22;16.50;99.90
55036;DHT22;40936;53.008;6.556;2023-04-25T10:32:35;18.00;44.80
55036;DHT22;40936;53.008;6.556;2023-04-25T10:35:18;18.10;6.00
55036;DHT22;40936;53.008;6.556;2023-04-25T10:38:10;18.60;10.30
55036;DHT22;40936;53.008;6.556;2023-04-25T10:40:36;19.50;1.00
55036;DHT22;40936;53.008;6.556;2023-04-25T10:43:33;19.60;1.00
55036;DHT22;40936;53.008;6.556;2023-04-25T10:46:00;19.30;1.00
55036;DHT22;40936;53.008;6.556;2023-04-25T10:48:27;18.60;1.00
55036;DHT22;40936;53.008;6.556;2023-04-25T10:51:12;18.70;1.00
55036;DHT22;40936;53.008;6.556;2023-04-25T10:53:41;19.00;1.00
55036;DHT22;40936;53.008;6.556;2023-04-25T10:56:22;18.20;1.00
55036;DHT22;40936;53.008;6.556;2023-04-25T10:58:49;16.90;1.00
55036;DHT22;40936;53.008;6.556;2023-04-25T11:01:19;15.90;1.00
55036;DHT22;40936;53.008;6.556;2023-04-25T11:03:45;15.30;1.00
55036;DHT22;40936;53.008;6.556;2023-04-25T11:07:33;15.00;1.00
55036;DHT22;40936;53.008;6.556;2023-04-25T11:09:27;14.90;1.00
55036;DHT22;40936;53.008;6.556;2023-04-25T11:11:58;15.60;1.00
55036;DHT22;40936;53.008;6.556;2023-04-25T11:14:25;16.80;1.00
55036;DHT22;40936;53.008;6.556;2023-04-25T11:16:58;17.40;1.00
55036;DHT22;40936;53.008;6.556;2023-04-25T11:19:25;16.70;1.00
55036;DHT22;40936;53.008;6.556;2023-04-25T11:21:54;15.50;1.00
55036;DHT22;40936;53.008;6.556;2023-04-25T11:24:26;14.30;1.00
55036;DHT22;40936;53.008;6.556;2023-04-25T11:26:52;13.20;6.20
55036;DHT22;40936;53.008;6.556;2023-04-25T11:29:18;12.30;19.70
55036;DHT22;40936;53.008;6.556;2023-04-25T11:31:44;12.00;68.60
55036;DHT22;40936;53.008;6.556;2023-04-25T11:34:11;12.00;99.90
55036;DHT22;40936;53.008;6.556;2023-04-25T11:36:38;12.30;99.90
55036;DHT22;40936;53.008;6.556;2023-04-25T11:39:04;13.30;99.90
55036;DHT22;40936;53.008;6.556;2023-04-25T11:41:31;14.50;86.20
55036;DHT22;40936;53.008;6.556;2023-04-25T11:43:57;15.70;67.40
55036;DHT22;40936;53.008;6.556;2023-04-25T11:46:23;16.00;16.40
55036;DHT22;40936;53.008;6.556;2023-04-25T11:48:48;16.50;18.10
55036;DHT22;40936;53.008;6.556;2023-04-25T11:51:16;17.20;1.00
55036;DHT22;40936;53.008;6.556;2023-04-25T11:53:44;16.90;1.00
55036;DHT22;40936;53.008;6.556;2023-04-25T11:56:10;16.50;1.00
55036;DHT22;40936;53.008;6.556;2023-04-25T11:58:59;15.70;1.00
55036;DHT22;40936;53.008;6.556;2023-04-25T12:03:56;14.80;1.00
55036;DHT22;40936;53.008;6.556;2023-04-25T12:06:26;15.30;1.00
55036;DHT22;40936;53.008;6.556;2023-04-25T12:09:04;15.50;1.00
55036;DHT22;40936;53.008;6.556;2023-04-25T12:11:41;16.40;1.00
55036;DHT22;40936;53.008;6.556;2023-04-25T12:14:06;16.80;1.00
55036;DHT22;40936;53.008;6.556;2023-04-25T12:19:08;15.80;1.00
55036;DHT22;40936;53.008;6.556;2023-04-25T12:21:34;15.20;1.00
55036;DHT22;40936;53.008;6.556;2023-04-25T12:24:10;14.70;1.00
55036;DHT22;40936;53.008;6.556;2023-04-25T12:27:02;14.60;1.00
55036;DHT22;40936;53.008;6.556;2023-04-25T12:29:30;14.40;1.00
55036;DHT22;40936;53.008;6.556;2023-04-25T12:31:56;14.10;1.00
55036;DHT22;40936;53.008;6.556;2023-04-25T12:34:23;13.80;1.00
55036;DHT22;40936;53.008;6.556;2023-04-25T12:36:49;13.60;1.00
55036;DHT22;40936;53.008;6.556;2023-04-25T12:39:24;13.40;1.00
55036;DHT22;40936;53.008;6.556;2023-04-25T12:41:52;13.60;1.00
55036;DHT22;40936;53.008;6.556;2023-04-25T12:44:21;13.60;1.00
55036;DHT22;40936;53.008;6.556;2023-04-25T12:46:47;13.70;1.00
55036;DHT22;40936;53.008;6.556;2023-04-25T12:49:13;13.80;1.00
55036;DHT22;40936;53.008;6.556;2023-04-25T12:51:40;13.90;1.00
55036;DHT22;40936;53.008;6.556;2023-04-25T12:54:07;13.90;1.00
55036;DHT22;40936;53.008;6.556;2023-04-25T12:56:34;14.00;1.00
55036;DHT22;40936;53.008;6.556;2023-04-25T12:58:59;14.10;1.00
55036;DHT22;40936;53.008;6.556;2023-04-25T13:01:25;13.90;1.00
55036;DHT22;40936;53.008;6.556;2023-04-25T13:03:52;14.10;1.00
55036;DHT22;40936;53.008;6.556;2023-04-25T13:06:19;14.10;1.00
55036;DHT22;40936;53.008;6.556;2023-04-25T13:08:45;14.00;1.00
55036;DHT22;40936;53.008;6.556;2023-04-25T13:11:11;14.10;1.00
55036;DHT22;40936;53.008;6.556;2023-04-25T13:13:37;14.10;1.00
55036;DHT22;40936;53.008;6.556;2023-04-25T13:16:04;13.90;1.00
55036;DHT22;40936;53.008;6.556;2023-04-25T13:18:30;13.70;1.00
55036;DHT22;40936;53.008;6.556;2023-04-25T13:20:56;13.50;1.00
55036;DHT22;40936;53.008;6.556;2023-04-25T13:23:23;13.40;1.00
55036;DHT22;40936;53.008;6.556;2023-04-25T13:25:49;13.20;1.00
55036;DHT22;40936;53.008;6.556;2023-04-25T13:28:15;12.10;15.90
55036;DHT22;40936;53.008;6.556;2023-04-25T13:30:41;10.80;49.20
55036;DHT22;40936;53.008;6.556;2023-04-25T13:33:07;10.70;46.80
55036;DHT22;40936;53.008;6.556;2023-04-25T13:35:34;10.50;59.90
55036;DHT22;40936;53.008;6.556;2023-04-25T13:38:00;10.70;92.40
55036;DHT22;40936;53.008;6.556;2023-04-25T13:40:26;10.80;94.50
55036;DHT22;40936;53.008;6.556;2023-04-25T13:42:52;11.00;97.70
55036;DHT22;40936;53.008;6.556;2023-04-25T13:45:21;11.20;99.90
55036;DHT22;40936;53.008;6.556;2023-04-25T13:47:47;11.40;91.30
55036;DHT22;40936;53.008;6.556;2023-04-25T13:50:13;11.40;98.00
55036;DHT22;40936;53.008;6.556;2023-04-25T13:52:40;11.40;99.90
55036;DHT22;40936;53.008;6.556;2023-04-25T13:55:06;11.40;98.50
55036;DHT22;40936;53.008;6.556;2023-04-25T13:57:35;11.20;89.00
55036;DHT22;40936;53.008;6.556;2023-04-25T14:00:03;10.90;67.00
55036;DHT22;40936;53.008;6.556;2023-04-25T14:02:37;10.40;71.00
55036;DHT22;40936;53.008;6.556;2023-04-25T14:05:04;9.40;99.90
55036;DHT22;40936;53.008;6.556;2023-04-25T14:07:30;9.60;99.90
55036;DHT22;40936;53.008;6.556;2023-04-25T14:09:57;9.50;99.90
55036;DHT22;40936;53.008;6.556;2023-04-25T14:12:23;9.30;99.90
55036;DHT22;40936;53.008;6.556;2023-04-25T14:14:49;9.50;99.90
55036;DHT22;40936;53.008;6.556;2023-04-25T14:17:15;9.40;99.90
55036;DHT22;40936;53.008;6.556;2023-04-25T14:19:40;9.70;99.90
55036;DHT22;40936;53.008;6.556;2023-04-25T14:22:10;10.00;99.90
55036;DHT22;40936;53.008;6.556;2023-04-25T14:24:36;10.20;99.90
55036;DHT22;40936;53.008;6.556;2023-04-25T14:27:02;10.50;99.90
55036;DHT22;40936;53.008;6.556;2023-04-25T14:29:28;10.50;99.90
55036;DHT22;40936;53.008;6.556;2023-04-25T14:31:54;10.70;99.90
55036;DHT22;40936;53.008;6.556;2023-04-25T14:34:19;10.90;99.90
55036;DHT22;40936;53.008;6.556;2023-04-25T14:36:45;11.00;99.90
55036;DHT22;40936;53.008;6.556;2023-04-25T14:39:12;10.90;99.90
55036;DHT22;40936;53.008;6.556;2023-04-25T14:41:37;10.80;99.90
55036;DHT22;40936;53.008;6.556;2023-04-25T14:44:03;10.70;99.90
55036;DHT22;40936;53.008;6.556;2023-04-25T14:46:29;10.60;99.90
55036;DHT22;40936;53.008;6.556;2023-04-25T14:48:55;10.30;99.90
55036;DHT22;40936;53.008;6.556;2023-04-25T14:51:21;10.20;99.90
55036;DHT22;40936;53.008;6.556;2023-04-25T14:53:47;10.20;99.90
55036;DHT22;40936;53.008;6.556;2023-04-25T14:56:13;10.40;99.90
55036;DHT22;40936;53.008;6.556;2023-04-25T14:58:39;10.50;99.90
55036;DHT22;40936;53.008;6.556;2023-04-25T15:01:05;10.60;99.90
55036;DHT22;40936;53.008;6.556;2023-04-25T15:03:32;10.20;99.90
55036;DHT22;40936;53.008;6.556;2023-04-25T15:05:58;9.90;99.90
55036;DHT22;40936;53.008;6.556;2023-04-25T15:08:23;10.00;99.90
55036;DHT22;40936;53.008;6.556;2023-04-25T15:10:49;10.10;99.90
55036;DHT22;40936;53.008;6.556;2023-04-25T15:13:17;10.20;99.90
55036;DHT22;40936;53.008;6.556;2023-04-25T15:15:43;10.20;99.90
55036;DHT22;40936;53.008;6.556;2023-04-25T15:18:08;10.10;92.90
55036;DHT22;40936;53.008;6.556;2023-04-25T15:20:34;10.10;99.90
55036;DHT22;40936;53.008;6.556;2023-04-25T15:23:01;10.20;99.90
55036;DHT22;40936;53.008;6.556;2023-04-25T15:25:28;10.40;96.20
55036;DHT22;40936;53.008;6.556;2023-04-25T15:27:54;10.40;93.80
55036;DHT22;40936;53.008;6.556;2023-04-25T15:30:20;10.30;82.20
55036;DHT22;40936;53.008;6.556;2023-04-25T15:32:46;10.30;81.50
55036;DHT22;40936;53.008;6.556;2023-04-25T15:35:13;10.40;88.40
55036;DHT22;40936;53.008;6.556;2023-04-25T15:37:40;10.50;91.20
55036;DHT22;40936;53.008;6.556;2023-04-25T15:40:14;10.50;85.90
55036;DHT22;40936;53.008;6.556;2023-04-25T15:42:45;10.40;73.60
55036;DHT22;40936;53.008;6.556;2023-04-25T15:45:13;10.30;70.80
55036;DHT22;40936;53.008;6.556;2023-04-25T15:47:40;10.30;71.30
55036;DHT22;40936;53.008;6.556;2023-04-25T15:50:07;10.40;67.00
55036;DHT22;40936;53.008;6.556;2023-04-25T15:52:34;10.40;54.40
55036;DHT22;40936;53.008;6.556;2023-04-25T15:55:00;10.30;50.40
55036;DHT22;40936;53.008;6.556;2023-04-25T15:57:33;10.10;53.20
55036;DHT22;40936;53.008;6.556;2023-04-25T16:00:00;10.20;54.20
55036;DHT22;40936;53.008;6.556;2023-04-25T16:02:27;10.50;56.00